Last 24 Hours

Coyote Canyon

10 Minute Data | America/Los_Angeles
as of 5/5/26 10:10 AM PDT
Date & Time Temp (°F) Dew Pt (°F) RH (%) Wind Spd (mph) Wind Dir (°) Wind Gust (mph) Wind Gst Dir (°) Daily Max Temp (°F) Daily Min Temp (°F)
5/5/26 - 1010 44.4 41.3 89 15.6 WSW | 241 24.8 WSW | 243 44.9 41.2
5/5/26 - 1000 43.8 40.8 89 18.2 WSW | 251 27.6 WSW | 251 44.8 41.2
5/5/26 - 0950 43.8 41.7 92 19.1 WSW | 250 27.0 WSW | 242 44.8 41.2
5/5/26 - 0940 43.8 42.1 94 21.6 WSW | 242 29.7 WSW | 244 44.8 41.2
5/5/26 - 0930 44.0 42.6 95 20.1 WSW | 238 28.7 SW | 216 44.8 41.2
5/5/26 - 0920 43.2 42.4 97 21.2 SW | 221 29.4 SW | 216 44.6 41.2
5/5/26 - 0910 43.5 42.8 97 21.9 SW | 227 28.8 SW | 219 44.6 41.2
5/5/26 - 0900 43.8 43.7 99 18.5 SW | 235 27.6 SW | 232 44.6 41.2
5/5/26 - 0850 43.2 43.2 100 18.1 WSW | 242 27.1 WSW | 239 43.8 41.2
5/5/26 - 0840 43.0 43.0 100 20.8 WSW | 251 29.1 WSW | 255 43.8 41.2
5/5/26 - 0830 43.3 43.3 100 19.4 WSW | 253 26.4 WSW | 255 43.8 41.2
5/5/26 - 0820 43.2 43.2 100 17.4 WSW | 247 24.3 WSW | 256 43.8 41.2
5/5/26 - 0810 42.9 42.9 100 19.2 WSW | 250 27.0 WSW | 243 43.3 41.2
5/5/26 - 0800 42.9 42.9 100 18.4 WSW | 253 24.9 WSW | 254 43.3 41.2
5/5/26 - 0750 42.6 42.6 100 18.1 WSW | 246 25.6 WSW | 248 43.3 41.2
5/5/26 - 0740 43.1 43.1 100 15.1 WSW | 254 22.7 WSW | 248 43.3 41.2
5/5/26 - 0730 43.1 43.1 100 14.2 WSW | 253 21.7 WSW | 249 43.3 41.2
5/5/26 - 0720 42.6 42.6 100 16.4 WSW | 256 24.0 WSW | 251 42.9 41.2
5/5/26 - 0710 42.5 42.5 100 18.8 WSW | 254 24.8 WSW | 253 42.8 41.2
5/5/26 - 0700 42.4 42.4 100 16.5 WSW | 251 24.9 WSW | 250 42.8 41.2
5/5/26 - 0650 42.2 42.2 100 13.7 WSW | 254 18.6 W | 260 42.8 41.2
5/5/26 - 0640 42.6 42.6 100 13.7 WSW | 251 20.8 WSW | 256 42.8 41.2
5/5/26 - 0630 42.6 42.6 100 15.7 WSW | 246 22.2 WSW | 251 42.8 41.2
5/5/26 - 0620 42.3 42.3 100 16.1 WSW | 246 21.5 WSW | 241 42.8 41.2
5/5/26 - 0610 42.3 42.2 100 17.8 WSW | 242 24.7 WSW | 241 42.8 41.2
5/5/26 - 0600 42.6 42.6 100 17.0 SW | 232 23.4 WSW | 251 42.8 41.2
5/5/26 - 0550 42.7 42.7 100 17.7 WSW | 242 23.5 SW | 236 42.8 41.2
5/5/26 - 0540 42.8 42.8 100 16.8 WSW | 243 24.8 SW | 236 42.8 41.2
5/5/26 - 0530 42.6 42.6 100 16.6 WSW | 246 22.9 SW | 232 42.8 41.2
5/5/26 - 0520 42.5 42.5 100 18.1 WSW | 249 26.5 WSW | 241 42.5 41.2
5/5/26 - 0510 42.4 42.4 100 20.2 WSW | 252 26.2 WSW | 251 42.5 41.2
5/5/26 - 0500 42.4 42.4 100 19.1 WSW | 256 25.4 WNW | 295 42.4 41.2
5/5/26 - 0450 42.4 42.4 100 18.2 WSW | 249 25.3 W | 266 42.4 41.2
5/5/26 - 0440 42.2 42.2 100 14.8 WSW | 244 20.2 WSW | 252 42.3 41.2
5/5/26 - 0430 42.0 42.0 100 17.3 WSW | 250 24.2 W | 264 42.3 41.2
5/5/26 - 0420 41.9 41.9 100 16.4 WSW | 256 24.0 W | 271 42.3 41.2
5/5/26 - 0410 41.9 41.9 100 19.8 WSW | 251 28.6 WSW | 252 42.3 41.2
5/5/26 - 0400 41.7 41.7 100 18.9 W | 271 29.9 W | 270 42.3 41.2
5/5/26 - 0350 41.4 41.4 100 20.7 WNW | 288 28.4 W | 278 42.3 41.2
5/5/26 - 0340 41.3 41.3 100 17.9 W | 270 25.0 W | 274 42.3 41.2
5/5/26 - 0330 41.4 41.4 100 18.3 W | 268 24.9 W | 273 42.3 41.3
5/5/26 - 0320 41.4 41.4 100 21.9 WSW | 258 27.2 W | 262 42.3 41.3
5/5/26 - 0310 41.5 41.4 100 20.7 WSW | 252 28.1 WSW | 248 42.3 41.3
5/5/26 - 0300 41.4 41.4 100 19.4 WSW | 246 24.6 WSW | 254 42.3 41.4
5/5/26 - 0250 41.5 41.5 100 19.1 WSW | 254 24.9 W | 263 42.3 41.4
5/5/26 - 0240 41.6 41.6 100 18.8 WSW | 245 25.1 WSW | 244 42.3 41.6
5/5/26 - 0230 41.7 41.7 100 21.2 WSW | 250 29.2 WSW | 248 42.3 41.6
5/5/26 - 0220 41.9 41.9 100 22.4 WSW | 255 30.2 W | 262 42.3 41.8
5/5/26 - 0210 42.0 42.0 100 20.1 W | 273 27.8 W | 272 42.3 41.8
5/5/26 - 0200 42.0 42.0 100 18.9 W | 277 25.7 W | 276 42.3 41.8
5/5/26 - 0150 42.0 42.0 100 17.6 W | 278 24.9 W | 277 42.3 41.8
5/5/26 - 0140 41.9 41.9 100 18.7 W | 272 25.0 W | 274 42.3 41.8
5/5/26 - 0130 41.9 41.9 100 18.7 WSW | 255 25.1 WSW | 238 42.3 41.8
5/5/26 - 0120 42.1 42.1 100 17.4 WSW | 242 24.3 WSW | 237 42.3 41.9
5/5/26 - 0110 42.2 42.2 100 18.7 WSW | 250 25.7 WSW | 251 42.3 42.2
5/5/26 - 0100 42.2 42.2 100 16.7 WSW | 250 23.5 WSW | 241 53.6 41.8
5/5/26 - 0050 42.1 42.1 100 16.5 WSW | 255 22.1 WSW | 250 53.6 41.8
5/5/26 - 0040 41.9 41.8 100 17.7 W | 280 23.9 W | 281 53.6 41.8
5/5/26 - 0030 41.9 41.5 98 17.8 W | 280 23.1 W | 275 53.6 41.8
5/5/26 - 0020 42.0 40.9 96 20.7 WNW | 283 27.8 WNW | 284 53.6 41.9
5/5/26 - 0010 42.5 40.6 93 19.4 WNW | 288 26.6 W | 281 53.6 41.9
5/5/26 - 0000 42.9 40.9 92 18.8 WNW | 288 26.4 WNW | 285 53.6 41.9
5/4/26 - 2350 43.0 40.8 92 18.9 WNW | 284 25.4 WNW | 284 53.6 41.9
5/4/26 - 2340 43.2 40.6 91 17.1 W | 270 25.4 W | 266 53.6 41.9
5/4/26 - 2330 43.1 40.6 91 18.2 W | 271 25.4 W | 266 53.6 41.9
5/4/26 - 2320 43.1 41.0 92 16.5 W | 271 25.6 W | 273 53.6 41.9
5/4/26 - 2310 43.1 41.1 92 18.2 W | 276 25.5 W | 279 53.6 41.9
5/4/26 - 2300 43.0 41.2 93 19.5 W | 277 25.6 W | 266 53.6 41.9
5/4/26 - 2250 43.1 41.2 93 19.4 W | 275 25.7 W | 274 53.6 41.9
5/4/26 - 2240 43.1 41.0 92 19.3 W | 272 26.5 W | 281 53.6 41.9
5/4/26 - 2230 43.1 40.4 90 21.6 W | 265 29.7 W | 270 53.6 41.9
5/4/26 - 2220 43.2 40.6 90 20.6 W | 266 29.0 W | 266 53.6 41.9
5/4/26 - 2210 43.2 40.9 91 20.4 W | 268 28.6 W | 265 53.6 41.9
5/4/26 - 2200 43.2 40.6 90 21.0 W | 268 29.9 W | 269 53.6 41.9
5/4/26 - 2150 43.4 40.4 89 21.5 W | 265 30.0 W | 259 53.6 41.9
5/4/26 - 2140 43.5 40.7 90 19.6 WSW | 257 30.2 W | 272 53.6 41.9
5/4/26 - 2130 43.8 40.6 89 20.3 WSW | 258 27.6 W | 263 53.6 41.9
5/4/26 - 2120 43.8 41.2 90 21.0 W | 261 31.9 W | 260 53.6 41.9
5/4/26 - 2110 44.1 42.0 92 19.4 W | 270 27.1 W | 279 53.6 41.9
5/4/26 - 2100 44.2 41.9 92 22.6 W | 263 33.7 W | 259 53.6 41.9
5/4/26 - 2050 44.4 42.2 92 23.6 W | 263 33.0 W | 272 53.6 41.9
5/4/26 - 2040 44.8 42.4 91 22.8 WSW | 253 32.7 W | 260 53.6 41.9
5/4/26 - 2030 45.0 42.6 91 22.1 W | 269 33.4 WNW | 284 53.6 41.9
5/4/26 - 2020 45.1 42.8 91 20.8 W | 270 28.7 W | 276 53.6 41.9
5/4/26 - 2010 45.4 42.6 90 22.2 W | 264 36.5 W | 275 53.6 41.9
5/4/26 - 2000 45.5 42.5 89 24.6 W | 261 33.2 W | 259 53.6 41.9
5/4/26 - 1950 45.7 42.2 87 23.8 W | 264 34.4 W | 263 53.6 41.9
5/4/26 - 1940 46.0 42.0 86 24.9 W | 260 38.4 W | 266 53.6 41.9
5/4/26 - 1930 46.3 41.8 84 26.4 WSW | 248 35.4 W | 264 53.6 41.9
5/4/26 - 1920 46.6 41.6 83 27.3 W | 265 37.8 W | 268 53.6 41.9
5/4/26 - 1910 47.2 41.6 81 23.7 W | 260 35.2 WNW | 285 53.6 41.9
5/4/26 - 1900 47.8 41.6 79 24.2 W | 263 33.5 W | 268 53.6 41.9
5/4/26 - 1850 48.4 41.7 77 27.2 W | 263 35.7 WSW | 248 53.6 41.9
5/4/26 - 1840 49.1 41.7 75 24.0 WSW | 258 33.4 W | 264 53.6 41.9
5/4/26 - 1830 49.6 41.2 73 25.6 WSW | 257 33.6 WSW | 258 53.6 41.9
5/4/26 - 1820 49.9 41.2 72 23.0 W | 267 34.0 W | 262 53.6 41.9
5/4/26 - 1810 50.3 41.7 72 25.0 W | 261 37.2 WSW | 252 53.6 41.9
5/4/26 - 1800 50.2 41.5 72 25.4 W | 264 34.8 W | 264 53.6 41.9
5/4/26 - 1750 49.9 41.9 74 23.0 SW | 232 32.8 SW | 230 53.6 41.9
5/4/26 - 1740 49.9 41.5 73 24.4 W | 264 34.5 WSW | 258 53.6 41.9
5/4/26 - 1730 50.0 41.2 72 26.9 W | 261 36.0 SW | 216 53.6 41.9
5/4/26 - 1720 50.2 41.1 71 25.5 W | 261 36.2 W | 266 53.6 41.9
5/4/26 - 1710 50.2 41.1 71 25.3 W | 264 34.5 WSW | 254 53.6 41.9
5/4/26 - 1700 51.0 40.9 68 22.8 W | 260 34.5 WSW | 239 53.6 41.9
5/4/26 - 1650 50.9 40.7 68 25.4 W | 262 35.6 W | 271 53.6 41.9
5/4/26 - 1640 51.7 40.3 65 22.9 WSW | 252 32.7 SW | 235 53.6 41.9
5/4/26 - 1630 51.8 40.0 64 24.6 WSW | 256 33.8 W | 274 53.6 41.9
5/4/26 - 1620 51.4 40.0 65 24.4 W | 266 35.1 W | 269 53.6 41.9
5/4/26 - 1610 51.4 39.7 64 26.2 W | 276 36.2 W | 281 53.6 41.9
5/4/26 - 1600 51.1 39.7 65 26.8 WNW | 287 37.5 W | 276 53.6 41.9
5/4/26 - 1550 51.5 39.4 63 26.1 WSW | 253 37.6 WNW | 283 53.6 41.9
5/4/26 - 1540 52.1 38.6 60 25.4 WSW | 245 37.2 WSW | 238 53.6 41.9
5/4/26 - 1530 52.8 38.4 58 24.0 W | 270 36.3 W | 266 53.6 41.9
5/4/26 - 1520 52.1 39.2 61 26.5 W | 272 35.8 W | 268 53.6 41.9
5/4/26 - 1510 52.0 39.9 63 21.4 W | 271 30.3 W | 266 53.6 41.9
5/4/26 - 1500 51.1 39.5 64 23.2 W | 272 30.5 W | 273 53.6 41.9
5/4/26 - 1450 51.3 39.2 63 24.2 W | 273 36.2 W | 264 53.6 41.9
5/4/26 - 1440 51.1 38.8 63 26.9 W | 278 36.1 WNW | 286 53.6 41.9
5/4/26 - 1430 50.8 39.3 64 25.5 W | 273 36.4 W | 264 53.6 41.9
5/4/26 - 1420 51.5 39.1 63 25.6 W | 277 34.6 WSW | 258 53.6 41.9
5/4/26 - 1410 51.9 38.7 61 22.8 WNW | 290 34.5 WNW | 287 53.6 41.9
5/4/26 - 1400 52.4 37.6 57 22.8 W | 274 35.7 W | 268 53.6 41.9
5/4/26 - 1350 51.6 37.0 57 19.7 W | 260 28.7 W | 268 53.1 41.9
5/4/26 - 1340 51.4 37.7 59 21.5 W | 278 31.9 WSW | 256 52.5 41.9
5/4/26 - 1330 50.8 37.9 61 24.8 WSW | 245 35.2 WNW | 284 51.4 41.9
5/4/26 - 1320 50.2 38.6 64 21.0 W | 266 31.9 W | 266 50.9 41.9
5/4/26 - 1310 49.7 38.7 66 23.4 WNW | 287 33.5 W | 272 50.6 41.9
5/4/26 - 1300 49.8 38.4 65 18.5 W | 273 28.1 WNW | 288 50.6 41.9
5/4/26 - 1250 49.4 38.4 66 19.6 W | 278 26.4 WNW | 294 50.5 41.9
5/4/26 - 1240 49.2 38.3 66 21.6 WSW | 254 32.7 SW | 222 50.3 41.9
5/4/26 - 1230 49.6 37.6 63 18.0 W | 275 30.1 W | 271 50.3 41.9
5/4/26 - 1220 48.5 37.3 65 21.5 WNW | 290 31.9 WNW | 302 49.1 41.9
5/4/26 - 1210 48.2 37.2 65 22.8 WNW | 293 29.4 WNW | 295 49.1 41.9
5/4/26 - 1200 47.6 38.1 70 22.8 WNW | 288 30.2 WNW | 298 49.1 41.9
5/4/26 - 1150 48.1 37.9 68 18.6 WNW | 282 29.5 W | 280 49.1 41.9
5/4/26 - 1140 48.7 37.1 64 19.8 W | 273 28.8 WNW | 298 49.1 41.9
5/4/26 - 1130 48.1 37.9 67 19.0 W | 262 30.0 WSW | 244 49.0 41.9
5/4/26 - 1120 47.5 37.7 69 19.6 SW | 234 29.4 WSW | 238 48.3 41.9
5/4/26 - 1110 47.4 37.8 69 19.7 SW | 228 28.6 SW | 215 48.1 41.9
5/4/26 - 1100 46.8 37.3 69 22.2 SW | 231 30.5 SW | 234 48.1 41.9
5/4/26 - 1050 47.4 37.5 68 19.2 WSW | 243 26.7 SW | 223 48.1 41.9
5/4/26 - 1040 46.6 37.2 69 20.5 WSW | 244 30.3 WSW | 240 47.0 41.9
5/4/26 - 1030 46.4 37.3 70 20.2 WSW | 246 28.1 WSW | 240 46.8 41.9
5/4/26 - 1020 45.6 37.3 73 22.5 WSW | 251 31.1 WSW | 251 46.2 41.9
5/4/26 - 1010 45.4 37.6 74 22.0 WSW | 254 30.4 WSW | 254 46.0 41.9
Max 52.8 43.7 100 27.3 - 38.4 - 53.6 42.2
Avg 45.5 40.9 85 20.7 - 29.2 - - -
Min 41.3 37.0 57 13.7 - 18.6 - 42.3 41.2